map of TEE home
Great Circle Mapper logo
TEE - Airport
Location
City:  Tbessa, Algeria
Name:Cheikh Larbi Tébessi
ICAO / IATA:DABS / TEE

Details
Type:Airport (Aerodrome, Airfield)
Latitude:35°25'57"N (35.432500)
Longitude:8°07'32"E (8.125556)
Elevation:2661 ft (811 m)
Runways:2
Longest:9843 × 148 ft (3000 × 45 m)

Time
Time Zone:UTC+1
Local Time:

Weather
TAF:DABS 231100Z 2312/2412 36012KT 9999 SCT033
TEMPO 2312/2316 36022KT
BECMG 2320/2321 24006KT FEW030

Related Locations
Nearby:
Farthest:GIS: 11838 mi / 19052 km
Gisborne, NZ

Find:

   beyond  
but within

Other Information
Maps:
NOTAMs:
Links:
Sources:

  
flag of Algeria   

Sectional Chart

Flight Planning
at skyvector.com

Satellite Image

Google Maps Satellite View

 

Copyright © 2004-2014 Karl L. Swartz. All rights reserved.
The Great Circle Mapper name and logo are trademarks of the Great Circle Mapper.
All other trademarks mentioned herein belong to their respective owners.
Please see credits for attibutions and further copyright information.

  Follow gcmap on Facebook Follow gcmap on Twitter

hCard Microformat

Geo Microformat